Terminal Aerodrome Forecast
Issued by NWS Sioux Falls, SD

Home | Current Version | Previous Version | Text Only | Print | Product List | Glossary Off
Versions: 1 2 3 4 5 6 7 8 9 10 11 12 13 14

000
FTUS43 KFSD 180302 AAA
TAFHON
TAF AMD
KHON 180302Z 1803/1824 14006KT P6SM BKN200
      TEMPO 1803/1804 33024G35KT -TSRA BKN080CB
     FM180500 12006KT P6SM VCSH BKN100
     FM180900 14006KT P6SM SCT200
     FM181400 23004KT P6SM SCT150=

USA.gov is the U.S. government's official web portal to all federal, state and local government web resources and services.